Time;durP1;ratioP1;P1;durP2;ratioP2;P2;SDS_P1;SDS_P2;PMS_P1;PMS_P2;Temp;Humidity;BMP_temperature;BMP_pressure;BME280_temperature;BME280_humidity;BME280_pressure;Samples;Min_cycle;Max_cycle;Signal;HPM_P1;HPM_P2
2021/11/08 00:01:23;;;;;;;0.10;0.10;;;20.90;32.90;21.40;94157.00;;;;10397837;28;45371;-65
2021/11/08 00:06:23;;;;;;;0.35;0.20;;;20.90;32.90;21.40;94157.00;;;;10395777;28;45327;-64
2021/11/08 00:11:25;;;;;;;0.10;0.10;;;20.90;32.90;21.40;94145.00;;;;10378472;28;46991;-65
2021/11/08 00:16:44;;;;;;;0.10;0.10;;;20.90;33.00;21.40;94163.00;;;;10394723;28;45415;-65
2021/11/08 00:21:47;;;;;;;0.20;0.20;;;20.90;33.00;21.40;94164.00;;;;10395588;28;46388;-64
2021/11/08 00:26:48;;;;;;;0.52;0.20;;;20.90;33.00;21.40;94168.00;;;;10378723;28;47103;-64
2021/11/08 00:31:48;;;;;;;0.10;0.10;;;20.90;33.00;21.40;94166.00;;;;10395215;28;46277;-65
2021/11/08 00:36:50;;;;;;;0.08;0.08;;;20.90;33.00;21.40;94162.00;;;;10394933;28;45188;-66
2021/11/08 00:41:52;;;;;;;0.15;0.13;;;20.90;33.00;21.30;94172.00;;;;10395103;28;45382;-65
2021/11/08 00:46:56;;;;;;;0.08;0.08;;;20.90;33.10;21.40;94171.00;;;;10377821;28;47881;-65
2021/11/08 00:51:58;;;;;;;0.25;0.17;;;20.90;33.10;21.40;94160.00;;;;10378621;28;46999;-65
2021/11/08 00:57:00;;;;;;;0.17;0.13;;;20.90;33.10;21.40;94147.00;;;;10376994;28;48283;-65
2021/11/08 01:02:01;;;;;;;0.10;0.10;;;20.90;33.10;21.40;94161.00;;;;10377481;28;47384;-66
2021/11/08 01:07:02;;;;;;;0.10;0.10;;;20.90;33.10;21.40;94154.00;;;;10393115;28;46486;-66
2021/11/08 01:12:04;;;;;;;0.20;0.20;;;20.90;33.10;21.30;94156.00;;;;10376618;28;47281;-66
2021/11/08 01:17:06;;;;;;;0.10;0.10;;;20.80;33.10;21.30;94164.00;;;;10408586;28;47016;-65
2021/11/08 01:22:16;;;;;;;0.20;0.20;;;20.80;33.10;21.30;94186.00;;;;10392966;28;46453;-66
2021/11/08 01:27:18;;;;;;;0.10;0.10;;;20.90;33.20;21.30;94173.00;;;;10434076;28;45210;-66
2021/11/08 01:32:19;;;;;;;0.43;0.20;;;20.80;33.10;21.30;94165.00;;;;10417081;28;47040;-66
2021/11/08 01:37:20;;;;;;;0.50;0.20;;;20.80;33.10;21.30;94172.00;;;;10417146;28;47144;-66
2021/11/08 01:42:21;;;;;;;0.20;0.20;;;20.80;33.20;21.30;94159.00;;;;10433835;28;45203;-65
2021/11/08 01:47:22;;;;;;;0.10;0.10;;;20.80;33.20;21.30;94159.00;;;;10430351;28;45295;-66
2021/11/08 01:52:23;;;;;;;0.13;0.10;;;20.80;33.20;21.30;94177.00;;;;10408748;28;48429;-64
2021/11/08 01:57:23;;;;;;;0.20;0.20;;;20.80;33.20;21.20;94193.00;;;;10391303;28;47059;-66
2021/11/08 02:02:24;;;;;;;0.20;0.20;;;20.80;33.20;21.20;94181.00;;;;10403236;28;45427;-66
2021/11/08 02:07:25;;;;;;;0.10;0.10;;;20.80;33.20;21.20;94186.00;;;;10407058;28;46929;-66
2021/11/08 02:12:27;;;;;;;0.15;0.10;;;20.80;33.30;21.20;94170.00;;;;10408219;28;47112;-66
2021/11/08 02:17:29;;;;;;;0.45;0.10;;;20.70;33.20;21.20;94169.00;;;;10407561;28;45633;-66
2021/11/08 02:22:30;;;;;;;0.13;0.10;;;20.70;33.30;21.20;94180.00;;;;10375136;28;47796;-66
2021/11/08 02:27:31;;;;;;;0.10;0.10;;;20.80;33.30;21.20;94152.00;;;;10392614;28;45394;-65
2021/11/08 02:32:33;;;;;;;0.20;0.20;;;20.70;33.30;21.20;94164.00;;;;10391834;28;47410;-65
2021/11/08 02:37:34;;;;;;;0.10;0.10;;;20.70;33.30;21.20;94172.00;;;;10420893;28;46962;-66
2021/11/08 02:42:35;;;;;;;0.10;0.10;;;20.70;33.30;21.20;94150.00;;;;10421742;28;47550;-66
2021/11/08 02:47:36;;;;;;;0.10;0.00;;;20.70;33.30;21.20;94142.00;;;;10421002;28;48072;-65
2021/11/08 02:52:37;;;;;;;0.20;0.20;;;20.70;33.30;21.20;94148.00;;;;10406115;28;45579;-66
2021/11/08 02:57:39;;;;;;;0.10;0.10;;;20.70;33.30;21.20;94141.00;;;;10420262;28;46897;-66
2021/11/08 03:02:41;;;;;;;0.25;0.10;;;20.70;33.30;21.20;94138.00;;;;10404319;28;46899;-66
2021/11/08 03:07:43;;;;;;;0.10;0.10;;;20.70;33.40;21.20;94160.00;;;;10420381;28;47073;-66
2021/11/08 03:12:46;;;;;;;0.10;0.10;;;20.60;33.30;21.20;94158.00;;;;10405269;28;45365;-66
2021/11/08 03:17:47;;;;;;;0.40;0.10;;;20.70;33.30;21.10;94162.00;;;;10402991;28;46991;-65
2021/11/08 03:22:52;;;;;;;0.10;0.10;;;20.60;33.30;21.20;94183.00;;;;10420443;28;45448;-66
2021/11/08 03:27:54;;;;;;;0.52;0.20;;;20.60;33.30;21.10;94153.00;;;;10419114;28;46228;-66
2021/11/08 03:32:56;;;;;;;0.10;0.10;;;20.70;33.40;21.10;94143.00;;;;10420049;28;45484;-65
2021/11/08 03:37:57;;;;;;;0.10;0.10;;;20.60;33.30;21.10;94139.00;;;;10419797;28;45537;-66
2021/11/08 03:43:00;;;;;;;0.10;0.10;;;20.70;33.40;21.10;94166.00;;;;10419953;28;45279;-66
2021/11/08 03:48:05;;;;;;;0.20;0.05;;;20.70;33.40;21.10;94157.00;;;;10395789;28;47325;-66
2021/11/08 03:53:07;;;;;;;0.28;0.10;;;20.70;33.50;21.10;94166.00;;;;10413655;28;46745;-66
2021/11/08 03:58:07;;;;;;;0.20;0.10;;;20.60;33.30;21.10;94154.00;;;;10412627;28;45304;-65
2021/11/08 04:03:10;;;;;;;0.17;0.10;;;20.70;33.40;21.10;94164.00;;;;10396003;28;47782;-66
2021/11/08 04:08:17;;;;;;;0.10;0.10;;;20.70;33.40;21.10;94171.00;;;;10395947;28;45258;-65
2021/11/08 04:13:21;;;;;;;0.10;0.10;;;20.60;33.40;21.10;94166.00;;;;10411700;28;45325;-66
2021/11/08 04:18:25;;;;;;;0.10;0.10;;;20.60;33.40;21.10;94168.00;;;;10394562;28;47273;-66
2021/11/08 04:23:28;;;;;;;0.38;0.10;;;20.70;33.40;21.10;94184.00;;;;10406001;28;47075;-66
2021/11/08 04:28:29;;;;;;;0.08;0.00;;;20.70;33.40;21.10;94179.00;;;;10436027;28;46085;-65
2021/11/08 04:33:44;;;;;;;0.00;0.00;;;20.70;33.50;21.10;94176.00;;;;10436403;28;45521;-66
2021/11/08 04:44:13;;;;;;;0.03;0.03;;;20.70;33.40;21.10;94171.00;;;;10436761;28;45609;-66
2021/11/08 04:49:46;;;;;;;0.03;0.00;;;20.60;33.40;21.10;94168.00;;;;10435699;28;45548;-66
2021/11/08 05:31:00;;;;;;;0.43;0.20;;;20.90;33.40;21.50;94185.00;;;;10394526;28;46188;-65
2021/11/08 05:36:00;;;;;;;0.10;0.10;;;20.90;33.40;21.50;94171.00;;;;10394523;28;46295;-64
2021/11/08 05:41:01;;;;;;;0.25;0.20;;;21.00;33.30;21.60;94178.00;;;;10377074;28;48382;-67
2021/11/08 05:46:02;;;;;;;0.20;0.17;;;21.10;33.20;21.60;94171.00;;;;10376652;28;48069;-65
2021/11/08 05:51:03;;;;;;;0.17;0.10;;;21.10;33.10;21.60;94178.00;;;;10393119;28;45543;-65
2021/11/08 05:56:26;;;;;;;0.10;0.10;;;21.20;33.10;21.70;94186.00;;;;10375412;28;48330;-64
2021/11/08 06:49:33;;;;;;;0.32;0.10;;;21.10;33.00;21.70;94213.00;;;;10405506;28;45177;-65
2021/11/08 06:54:33;;;;;;;0.30;0.20;;;21.20;33.00;21.70;94233.00;;;;10391379;28;48338;-65
2021/11/08 06:59:34;;;;;;;0.30;0.10;;;21.20;33.00;21.70;94238.00;;;;10407609;28;46155;-65
2021/11/08 07:04:35;;;;;;;0.73;0.30;;;21.20;32.90;21.70;94222.00;;;;10392077;28;46281;-65
2021/11/08 07:09:38;;;;;;;0.52;0.28;;;21.30;32.90;21.80;94235.00;;;;10391897;28;45194;-66
2021/11/08 07:14:40;;;;;;;0.75;0.17;;;21.30;32.80;21.80;94233.00;;;;10427375;28;47103;-66
2021/11/08 07:19:41;;;;;;;0.65;0.30;;;21.30;32.80;21.70;94243.00;;;;10417678;28;45323;-65
2021/11/08 07:24:42;;;;;;;0.52;0.20;;;21.30;32.70;21.70;94264.00;;;;10415424;28;47138;-66
2021/11/08 07:29:43;;;;;;;0.52;0.20;;;21.30;32.70;21.70;94251.00;;;;10396561;28;45460;-65
2021/11/08 07:34:44;;;;;;;0.20;0.13;;;21.30;32.70;21.70;94264.00;;;;10396809;28;45288;-65
2021/11/08 07:39:44;;;;;;;0.63;0.20;;;21.30;32.80;21.70;94263.00;;;;10379972;28;47564;-66
2021/11/08 07:44:46;;;;;;;0.10;0.10;;;21.30;32.70;21.70;94279.00;;;;10396817;28;45417;-65
2021/11/08 07:49:47;;;;;;;0.22;0.20;;;21.20;32.70;21.70;94257.00;;;;10396601;28;46571;-65
2021/11/08 07:54:48;;;;;;;0.47;0.28;;;21.20;32.80;21.70;94265.00;;;;10395499;28;45579;-65
2021/11/08 07:59:49;;;;;;;1.20;0.43;;;21.30;32.80;21.70;94266.00;;;;10395992;28;46875;-65
2021/11/08 08:04:50;;;;;;;1.58;0.73;;;21.20;32.70;21.60;94267.00;;;;10394697;28;45248;-63
2021/11/08 08:09:53;;;;;;;2.28;0.80;;;21.10;31.60;21.60;94256.00;;;;10400351;28;46599;-66
2021/11/08 08:14:54;;;;;;;3.03;0.88;;;21.20;30.80;21.50;94252.00;;;;10395292;28;45204;-66
2021/11/08 08:19:55;;;;;;;1.75;0.77;;;21.10;30.90;21.50;94263.00;;;;10393529;28;48288;-62
2021/11/08 08:24:55;;;;;;;3.22;0.93;;;21.10;30.70;21.50;94265.00;;;;10395236;28;45430;-62
2021/11/08 08:29:56;;;;;;;6.00;1.52;;;21.10;30.70;21.50;94273.00;;;;10394116;28;45327;-62
2021/11/08 08:34:57;;;;;;;3.92;1.42;;;21.10;30.80;21.50;94265.00;;;;10386280;28;46850;-67
2021/11/08 08:39:59;;;;;;;9.25;2.58;;;21.10;30.00;21.40;94269.00;;;;10435141;28;46939;-62
2021/11/08 08:44:59;;;;;;;4.95;1.63;;;21.10;29.40;21.40;94255.00;;;;10418089;28;47177;-62
2021/11/08 08:50:00;;;;;;;5.55;1.65;;;21.00;29.10;21.40;94245.00;;;;10447280;28;46168;-64
2021/11/08 08:55:01;;;;;;;4.60;1.38;;;21.00;29.60;21.30;94241.00;;;;10425996;28;47044;-63
2021/11/08 09:00:05;;;;;;;6.13;2.00;;;21.00;29.80;21.40;94254.00;;;;10419799;28;46461;-64
2021/11/08 09:05:06;;;;;;;5.13;1.00;;;21.00;30.40;21.40;94243.00;;;;10393300;28;46282;-64
2021/11/08 09:10:07;;;;;;;4.68;1.13;;;21.00;29.90;21.40;94242.00;;;;10394234;28;47215;-62
2021/11/08 09:15:09;;;;;;;4.07;1.02;;;20.90;29.70;21.40;94241.00;;;;10393856;28;46195;-65
2021/11/08 09:20:11;;;;;;;5.28;1.10;;;21.00;29.90;21.40;94240.00;;;;10393364;28;45627;-61
2021/11/08 09:25:14;;;;;;;4.60;1.17;;;20.90;29.70;21.30;94242.00;;;;10376441;28;47237;-63
2021/11/08 09:30:19;;;;;;;5.13;1.60;;;20.90;29.20;21.30;94230.00;;;;10376647;28;47363;-60
2021/11/08 09:35:22;;;;;;;3.13;1.30;;;20.90;29.00;21.20;94226.00;;;;10429927;28;47142;-65
2021/11/08 09:40:24;;;;;;;3.88;1.30;;;20.90;28.80;21.20;94232.00;;;;10410284;28;45509;-64
2021/11/08 09:45:25;;;;;;;5.53;1.10;;;20.90;28.70;21.20;94242.00;;;;10375638;28;47288;-64
2021/11/08 09:50:30;;;;;;;3.33;1.00;;;20.80;28.60;21.30;94253.00;;;;10392482;28;46708;-63
2021/11/08 09:55:31;;;;;;;5.78;1.23;;;20.80;28.90;21.40;94243.00;;;;10391823;28;45336;-62
2021/11/08 10:00:43;;;;;;;4.53;1.00;;;20.90;29.30;21.30;94236.00;;;;10391791;28;45235;-63
2021/11/08 10:05:48;;;;;;;2.60;0.70;;;20.90;29.70;21.40;94249.00;;;;10436003;28;46458;-64
2021/11/08 10:10:51;;;;;;;3.42;0.70;;;20.90;30.00;21.40;94238.00;;;;10415278;28;47018;-65
2021/11/08 10:16:03;;;;;;;2.25;0.60;;;20.90;30.60;21.40;94257.00;;;;10433010;28;46251;-67
2021/11/08 10:21:07;;;;;;;2.40;0.77;;;21.00;30.90;21.50;94245.00;;;;10416380;28;47813;-65
2021/11/08 10:26:19;;;;;;;3.42;0.75;;;21.00;31.10;21.50;94242.00;;;;10432823;28;45176;-64
2021/11/08 10:31:30;;;;;;;2.63;0.63;;;21.10;31.20;21.50;94231.00;;;;10433327;28;45326;-65
2021/11/08 10:36:30;;;;;;;3.25;0.80;;;21.10;31.30;21.50;94241.00;;;;10432153;28;46562;-65
2021/11/08 10:41:40;;;;;;;2.65;0.70;;;21.10;31.30;21.60;94243.00;;;;10432543;28;45227;-64
2021/11/08 10:46:45;;;;;;;5.35;1.00;;;21.10;31.40;21.60;94257.00;;;;10431231;28;45579;-64
2021/11/08 10:51:53;;;;;;;2.15;0.60;;;21.10;31.40;21.70;94233.00;;;;10392752;28;46428;-64
2021/11/08 10:57:03;;;;;;;2.08;0.65;;;21.20;31.50;21.70;94234.00;;;;10429001;28;45318;-60
2021/11/08 11:02:08;;;;;;;2.67;0.63;;;21.20;31.40;21.70;94246.00;;;;10432236;28;45472;-64
2021/11/08 11:07:12;;;;;;;2.72;0.68;;;21.20;31.20;21.70;94240.00;;;;10422756;28;47063;-65
2021/11/08 11:12:20;;;;;;;3.80;0.52;;;21.20;31.30;21.70;94230.00;;;;10440672;28;46280;-65
2021/11/08 11:17:27;;;;;;;4.40;0.77;;;21.30;31.30;21.70;94228.00;;;;10421404;28;47533;-66
2021/11/08 11:22:27;;;;;;;1.80;0.65;;;21.30;31.30;21.70;94212.00;;;;10438813;28;46326;-64
2021/11/08 11:27:32;;;;;;;2.80;1.05;;;21.30;31.20;21.80;94222.00;;;;10439513;28;45479;-65
2021/11/08 11:32:34;;;;;;;3.47;0.80;;;21.30;31.00;21.80;94223.00;;;;10438954;28;45239;-66
2021/11/08 11:37:34;;;;;;;5.00;0.73;;;21.30;31.10;21.80;94225.00;;;;10421376;28;46902;-62
2021/11/08 11:43:03;;;;;;;3.25;0.70;;;21.30;31.30;21.80;94210.00;;;;10438975;28;45230;-61
2021/11/08 11:48:06;;;;;;;2.75;0.80;;;21.30;31.10;21.70;94227.00;;;;10436915;28;45305;-65
2021/11/08 11:53:07;;;;;;;2.05;0.60;;;21.30;30.90;21.70;94241.00;;;;10420486;28;47295;-63
2021/11/08 11:58:08;;;;;;;2.50;0.70;;;21.30;30.60;21.70;94220.00;;;;10437796;28;45295;-63
2021/11/08 12:03:09;;;;;;;3.13;1.10;;;21.30;30.50;21.70;94227.00;;;;10438711;28;46566;-63
2021/11/08 12:08:12;;;;;;;2.38;0.63;;;21.30;30.20;21.70;94226.00;;;;10435126;28;47011;-63
2021/11/08 12:13:17;;;;;;;4.75;0.80;;;21.30;30.30;21.70;94213.00;;;;10437360;28;45242;-62
2021/11/08 12:18:20;;;;;;;2.10;0.70;;;21.30;30.50;21.70;94226.00;;;;10436437;28;45985;-63
2021/11/08 12:23:28;;;;;;;1.77;0.70;;;21.30;30.50;21.70;94223.00;;;;10426635;28;45552;-63
2021/11/08 12:28:31;;;;;;;3.67;0.70;;;21.20;31.10;21.70;94204.00;;;;10447105;28;46878;-63
2021/11/08 12:33:41;;;;;;;1.73;0.70;;;21.30;31.30;21.70;94227.00;;;;10418969;28;47179;-64
2021/11/08 12:39:11;;;;;;;3.78;0.90;;;21.30;31.00;21.80;94195.00;;;;10414304;28;47503;-62
2021/11/08 12:44:32;;;;;;;2.17;0.70;;;21.30;31.10;21.80;94197.00;;;;10422311;28;46257;-62
2021/11/08 12:49:49;;;;;;;2.55;0.60;;;21.30;30.90;21.90;94199.00;;;;10446295;28;45586;-62
2021/11/08 12:54:52;;;;;;;1.70;0.80;;;21.40;31.00;21.90;94193.00;;;;10429354;28;45289;-62
2021/11/08 13:00:17;;;;;;;2.70;0.60;;;21.40;31.00;21.90;94202.00;;;;10413450;28;45238;-62
2021/11/08 13:05:33;;;;;;;1.65;0.43;;;21.40;31.10;22.00;94201.00;;;;10415483;28;47174;-63
2021/11/08 13:10:37;;;;;;;1.27;0.47;;;21.50;31.10;22.00;94193.00;;;;10429483;28;46550;-62
2021/11/08 13:15:43;;;;;;;4.72;0.80;;;21.50;31.10;22.00;94188.00;;;;10410303;28;46215;-63
2021/11/08 13:20:47;;;;;;;1.53;0.50;;;21.60;31.20;22.10;94200.00;;;;10434197;28;45431;-62
2021/11/08 13:25:55;;;;;;;1.73;0.70;;;21.60;31.20;22.00;94203.00;;;;10418012;28;47060;-63
2021/11/08 13:31:06;;;;;;;1.52;0.70;;;21.60;31.40;21.90;94202.00;;;;10434680;28;45157;-62
2021/11/08 13:36:08;;;;;;;2.38;0.80;;;21.50;31.50;21.90;94202.00;;;;10452246;22;46188;-62
2021/11/08 13:41:16;;;;;;;2.30;0.70;;;21.50;31.40;21.80;94192.00;;;;10372596;28;46392;-63
2021/11/08 13:47:01;;;;;;;1.65;0.52;;;21.40;31.20;21.70;94192.00;;;;10367728;28;45215;-65
2021/11/08 13:52:02;;;;;;;1.80;0.70;;;21.30;30.50;21.60;94202.00;;;;10350149;28;45207;-63
2021/11/08 13:57:23;;;;;;;3.53;0.70;;;21.20;29.90;21.60;94191.00;;;;10349914;28;45549;-60
2021/11/08 14:02:23;;;;;;;3.55;0.90;;;21.20;29.90;21.60;94200.00;;;;10351496;28;45530;-62
2021/11/08 14:07:26;;;;;;;3.10;0.60;;;21.20;29.50;21.60;94207.00;;;;10352782;28;45308;-64
2021/11/08 14:12:30;;;;;;;2.08;0.52;;;21.20;29.90;21.70;94213.00;;;;10351657;28;46950;-62
2021/11/08 14:17:34;;;;;;;1.40;0.50;;;21.20;30.30;21.70;94194.00;;;;10351700;28;45348;-62
2021/11/08 14:22:45;;;;;;;2.28;0.68;;;21.20;30.70;21.70;94211.00;;;;10352130;28;46240;-65
2021/11/08 14:27:46;;;;;;;2.15;0.60;;;21.20;30.40;21.70;94206.00;;;;10351178;28;45414;-60
2021/11/08 14:32:52;;;;;;;2.25;0.80;;;21.20;30.80;21.80;94218.00;;;;10350089;28;48248;-59
2021/11/08 14:38:12;;;;;;;1.43;0.57;;;21.20;30.80;21.80;94224.00;;;;10347049;28;45331;-60
2021/11/08 14:43:20;;;;;;;1.50;0.40;;;21.30;30.60;21.90;94214.00;;;;10351183;28;46986;-60
2021/11/08 14:48:29;;;;;;;3.20;0.50;;;21.30;30.30;21.80;94225.00;;;;10361611;28;45223;-60
2021/11/08 14:53:34;;;;;;;2.35;0.70;;;21.30;30.10;21.90;94216.00;;;;10374273;28;47332;-60
2021/11/08 14:58:36;;;;;;;1.63;0.50;;;21.30;30.00;21.90;94226.00;;;;10390884;28;45194;-60
2021/11/08 15:03:36;;;;;;;1.67;0.60;;;21.40;29.90;21.90;94217.00;;;;10391456;28;45513;-60
2021/11/08 15:08:37;;;;;;;3.58;0.77;;;21.40;29.70;21.90;94222.00;;;;10389901;28;46713;-61
2021/11/08 15:13:38;;;;;;;2.75;0.70;;;21.40;29.70;21.80;94228.00;;;;10390194;28;45308;-61
2021/11/08 15:18:38;;;;;;;1.67;0.57;;;21.40;29.60;21.80;94231.00;;;;10386267;28;45228;-65
2021/11/08 15:23:41;;;;;;;3.05;0.77;;;21.30;29.60;21.70;94219.00;;;;10387288;28;47043;-65
2021/11/08 15:28:54;;;;;;;3.35;1.17;;;21.30;29.50;21.70;94235.00;;;;10390330;28;45248;-64
2021/11/08 15:34:10;;;;;;;8.32;2.20;;;21.20;29.00;21.60;94240.00;;;;10390793;28;45262;-64
2021/11/08 15:39:14;;;;;;;13.15;3.92;;;21.20;29.10;21.60;94239.00;;;;10391091;28;48307;-65
2021/11/08 15:44:14;;;;;;;18.10;5.10;;;21.20;29.30;21.60;94247.00;;;;10396936;28;46030;-65
2021/11/08 15:49:15;;;;;;;17.92;5.63;;;21.10;29.40;21.70;94238.00;;;;10396895;28;46492;-65
2021/11/08 15:54:22;;;;;;;16.63;5.38;;;21.20;29.70;21.70;94243.00;;;;10396009;28;46324;-64
2021/11/08 15:59:23;;;;;;;15.98;5.07;;;21.20;29.90;21.70;94254.00;;;;10396639;28;48123;-65
2021/11/08 16:04:24;;;;;;;13.32;4.25;;;21.20;30.00;21.70;94242.00;;;;10395918;28;45385;-65
2021/11/08 16:09:25;;;;;;;12.90;4.07;;;21.20;30.00;21.70;94263.00;;;;10396062;28;46394;-64
2021/11/08 16:14:25;;;;;;;13.30;3.58;;;21.20;30.50;21.80;94260.00;;;;10395496;28;47191;-65
2021/11/08 16:19:26;;;;;;;10.75;3.22;;;21.30;31.30;21.80;94271.00;;;;10395129;28;46202;-61
2021/11/08 16:24:27;;;;;;;9.95;3.38;;;21.30;31.30;21.80;94249.00;;;;10395000;28;45607;-64
2021/11/08 16:29:27;;;;;;;8.63;2.65;;;21.30;31.50;21.80;94266.00;;;;10395087;28;46360;-63
2021/11/08 16:34:28;;;;;;;7.15;2.42;;;21.30;31.90;21.70;94272.00;;;;10394520;28;47134;-63
2021/11/08 16:39:29;;;;;;;10.02;2.15;;;21.30;32.20;21.80;94309.00;;;;10396102;28;45390;-64
2021/11/08 16:44:30;;;;;;;6.07;2.10;;;21.30;32.20;21.70;94294.00;;;;10395050;28;45279;-64
2021/11/08 16:49:31;;;;;;;6.78;2.53;;;21.30;31.70;21.70;94288.00;;;;10395286;28;45334;-60
2021/11/08 16:54:34;;;;;;;5.70;2.30;;;21.20;31.40;21.80;94287.00;;;;10394606;28;45360;-61
2021/11/08 16:59:35;;;;;;;4.78;2.30;;;21.30;31.80;21.80;94308.00;;;;10392670;28;47432;-62
2021/11/08 17:04:36;;;;;;;8.38;2.42;;;21.30;31.80;21.80;94311.00;;;;10384649;28;45239;-64
2021/11/08 17:14:56;;;;;;;4.22;1.98;;;21.30;32.00;21.80;94321.00;;;;10353544;28;45483;-63
2021/11/08 17:19:57;;;;;;;5.65;1.98;;;21.40;32.10;21.80;94321.00;;;;10357415;28;47752;-62
2021/11/08 17:24:58;;;;;;;6.45;1.95;;;21.40;32.20;21.80;94312.00;;;;10394137;28;45450;-64
2021/11/08 17:30:07;;;;;;;4.57;1.90;;;21.40;32.20;21.90;94317.00;;;;10374385;28;46041;-64
2021/11/08 17:35:11;;;;;;;3.72;1.60;;;21.40;32.10;21.90;94321.00;;;;10352860;28;45439;-65
2021/11/08 17:40:14;;;;;;;3.63;1.50;;;21.40;32.20;21.90;94316.00;;;;10392383;28;47915;-63
2021/11/08 17:45:16;;;;;;;3.55;1.40;;;21.40;32.50;21.90;94320.00;;;;10360980;28;45760;-64
2021/11/08 17:50:21;;;;;;;7.40;1.60;;;21.40;32.60;21.90;94335.00;;;;10351478;28;46297;-64
2021/11/08 17:55:28;;;;;;;3.38;1.50;;;21.40;32.60;21.90;94341.00;;;;10351631;28;45579;-65
2021/11/08 18:00:31;;;;;;;2.95;1.42;;;21.40;32.60;21.90;94346.00;;;;10351456;28;45502;-65
2021/11/08 18:05:32;;;;;;;2.67;1.30;;;21.40;32.50;21.90;94355.00;;;;10356970;28;47160;-63
2021/11/08 18:10:34;;;;;;;4.03;1.45;;;21.40;33.00;21.90;94357.00;;;;10392100;28;45629;-66
2021/11/08 18:15:36;;;;;;;4.38;1.40;;;21.50;32.90;21.90;94366.00;;;;10374909;28;45985;-64
2021/11/08 18:31:01;;;;;;;2.92;1.10;;;21.40;32.30;21.80;94365.00;;;;10351391;28;45409;-65
2021/11/08 18:36:08;;;;;;;3.33;1.10;;;21.40;32.00;21.80;94370.00;;;;10349759;28;45416;-65
2021/11/08 18:41:10;;;;;;;3.67;1.10;;;21.40;32.10;21.80;94378.00;;;;10350515;28;45570;-65
2021/11/08 18:46:11;;;;;;;6.72;1.10;;;21.30;31.50;21.80;94380.00;;;;10355012;28;45526;-63
2021/11/08 18:51:14;;;;;;;2.58;0.80;;;21.30;31.50;21.80;94369.00;;;;10384949;28;45641;-67
2021/11/08 18:56:15;;;;;;;2.58;1.00;;;21.30;31.30;21.80;94371.00;;;;10390723;28;45268;-66
2021/11/08 19:01:24;;;;;;;2.50;0.98;;;21.30;31.30;21.90;94379.00;;;;10391453;28;45569;-66
2021/11/08 19:06:38;;;;;;;2.03;0.85;;;21.40;31.30;21.90;94376.00;;;;10390638;28;47070;-65
2021/11/08 19:11:42;;;;;;;4.20;1.05;;;21.40;31.40;21.90;94380.00;;;;10391332;28;45363;-65
2021/11/08 19:16:43;;;;;;;2.72;1.00;;;21.40;31.60;21.90;94377.00;;;;10393004;28;45475;-67
2021/11/08 19:21:48;;;;;;;4.25;1.55;;;21.40;31.40;21.90;94367.00;;;;10372122;28;47407;-66
2021/11/08 19:26:50;;;;;;;1.98;0.75;;;21.40;31.30;21.90;94379.00;;;;10380323;28;47331;-67
2021/11/08 19:31:51;;;;;;;2.10;1.10;;;21.40;31.20;21.90;94376.00;;;;10397304;28;47172;-65
2021/11/08 19:42:12;;;;;;;1.55;0.85;;;21.40;31.20;21.90;94382.00;;;;10395021;28;45152;-66
2021/11/08 19:47:14;;;;;;;1.90;0.70;;;21.40;31.10;21.90;94392.00;;;;10396864;28;46984;-64
2021/11/08 19:52:16;;;;;;;2.08;0.70;;;21.40;31.00;21.90;94389.00;;;;10394164;28;45342;-66
2021/11/08 19:57:16;;;;;;;2.40;0.88;;;21.40;30.80;21.90;94392.00;;;;10395137;28;47006;-59
2021/11/08 20:02:17;;;;;;;2.05;0.65;;;21.40;31.10;21.90;94398.00;;;;10396495;28;45385;-64
2021/11/08 20:07:32;;;;;;;2.55;0.82;;;21.40;31.00;21.90;94408.00;;;;10394269;28;48401;-64
2021/11/08 20:12:36;;;;;;;2.53;0.65;;;21.40;31.50;21.90;94411.00;;;;10358190;28;47032;-61
2021/11/08 20:17:36;;;;;;;2.45;0.52;;;21.40;30.80;21.80;94408.00;;;;10354203;28;46023;-63
2021/11/08 20:22:38;;;;;;;1.55;0.70;;;21.40;30.40;21.80;94405.00;;;;10371313;28;47184;-65
2021/11/08 20:27:39;;;;;;;1.67;0.68;;;21.40;30.10;21.80;94413.00;;;;10353818;28;46729;-63
2021/11/08 20:38:07;;;;;;;3.60;1.58;;;21.30;30.10;21.80;94399.00;;;;10354639;28;45865;-63
2021/11/08 20:53:58;;;;;;;3.88;1.38;;;21.30;30.30;21.80;94395.00;;;;10325889;28;45616;-62
2021/11/08 21:04:34;;;;;;;3.45;1.08;;;21.30;29.80;21.70;94414.00;;;;10353733;28;46311;-62
2021/11/08 21:09:59;;;;;;;6.43;1.23;;;21.30;29.90;21.70;94409.00;;;;10353754;28;45571;-62
2021/11/08 21:15:04;;;;;;;2.05;0.70;;;21.20;29.90;21.70;94415.00;;;;10353652;28;45290;-62
2021/11/08 21:20:07;;;;;;;2.95;0.90;;;21.20;29.90;21.70;94410.00;;;;10354105;28;45757;-62
2021/11/08 21:25:12;;;;;;;1.88;0.93;;;21.20;30.00;21.70;94408.00;;;;10352949;28;45942;-63
2021/11/08 21:30:33;;;;;;;2.25;1.00;;;21.20;29.90;21.60;94410.00;;;;10354109;28;45209;-62
2021/11/08 21:40:56;;;;;;;1.70;0.60;;;21.10;29.60;21.60;94402.00;;;;10349319;28;45164;-61
2021/11/08 21:45:57;;;;;;;1.80;0.90;;;21.10;29.70;21.60;94400.00;;;;10353298;28;46508;-60
2021/11/08 21:50:58;;;;;;;2.25;0.70;;;21.10;29.80;21.60;94398.00;;;;10352919;28;46404;-62
2021/11/08 21:55:59;;;;;;;2.90;0.80;;;21.10;29.90;21.60;94382.00;;;;10368234;28;47167;-62
2021/11/08 22:01:00;;;;;;;1.70;0.80;;;21.10;30.50;21.60;94393.00;;;;10351907;28;45475;-60
2021/11/08 22:06:00;;;;;;;1.02;0.70;;;21.10;30.00;21.60;94401.00;;;;10351385;28;45359;-60
2021/11/08 22:11:03;;;;;;;1.70;0.80;;;21.10;30.00;21.60;94386.00;;;;10351776;28;45672;-60
2021/11/08 22:16:04;;;;;;;2.40;0.70;;;21.10;30.10;21.60;94400.00;;;;10367595;28;46961;-60
2021/11/08 22:21:05;;;;;;;1.35;0.68;;;21.10;30.20;21.60;94394.00;;;;10352957;28;45191;-60
2021/11/08 22:26:06;;;;;;;1.27;0.70;;;21.10;30.30;21.60;94414.00;;;;10367245;28;47334;-62
2021/11/08 22:31:07;;;;;;;1.75;0.70;;;21.10;30.30;21.60;94403.00;;;;10350873;28;46817;-61
2021/11/08 22:36:10;;;;;;;1.17;0.60;;;21.10;30.40;21.60;94404.00;;;;10349700;28;45687;-61
2021/11/08 22:41:12;;;;;;;1.35;0.57;;;21.10;30.50;21.60;94409.00;;;;10350270;28;45260;-61
2021/11/08 22:46:13;;;;;;;1.48;0.70;;;21.10;30.50;21.60;94408.00;;;;10353690;28;45256;-61
2021/11/08 22:51:14;;;;;;;1.10;0.50;;;21.10;30.60;21.60;94394.00;;;;10353095;28;45488;-61
2021/11/08 22:56:16;;;;;;;1.77;0.70;;;21.10;30.60;21.60;94396.00;;;;10357548;28;46259;-61
2021/11/08 23:01:21;;;;;;;1.45;0.60;;;21.10;30.70;21.60;94396.00;;;;10357727;28;45488;-61
2021/11/08 23:06:22;;;;;;;2.47;0.70;;;21.10;30.70;21.60;94392.00;;;;10357218;28;45214;-62
2021/11/08 23:11:23;;;;;;;1.75;0.70;;;21.10;30.80;21.60;94393.00;;;;10340544;28;47783;-61
2021/11/08 23:16:26;;;;;;;1.60;0.68;;;21.10;30.80;21.60;94395.00;;;;10357754;28;45718;-61
2021/11/08 23:21:30;;;;;;;1.45;0.50;;;21.10;30.90;21.60;94396.00;;;;10373442;28;48318;-61
2021/11/08 23:26:32;;;;;;;0.85;0.50;;;21.10;30.90;21.50;94397.00;;;;10356557;28;45137;-62
2021/11/08 23:31:34;;;;;;;1.08;0.47;;;21.00;30.90;21.50;94399.00;;;;10339775;28;48075;-61
2021/11/08 23:36:35;;;;;;;1.48;0.50;;;21.10;31.00;21.50;94384.00;;;;10339140;28;46967;-61
2021/11/08 23:41:35;;;;;;;1.35;0.50;;;21.00;30.90;21.50;94398.00;;;;10357264;28;46588;-62
2021/11/08 23:46:36;;;;;;;1.20;0.45;;;21.00;30.90;21.50;94392.00;;;;10362472;28;45177;-61
2021/11/08 23:51:37;;;;;;;1.05;0.43;;;21.00;31.00;21.50;94396.00;;;;10358063;28;45166;-61
2021/11/08 23:56:37;;;;;;;1.30;0.52;;;21.00;31.00;21.50;94385.00;;;;10354770;28;45454;-61
